Time;durP1;ratioP1;P1;durP2;ratioP2;P2;SDS_P1;SDS_P2;PMS_P1;PMS_P2;Temp;Humidity;BMP_temperature;BMP_pressure;BME280_temperature;BME280_humidity;BME280_pressure;Samples;Min_cycle;Max_cycle;Signal;HPM_P1;HPM_P2
2023/07/08 00:00:22;;;;;;;6.53;5.88;;;;;;;19.92;73.47;100961.03;6113068;23;20618;-69
2023/07/08 00:02:49;;;;;;;6.68;6.28;;;;;;;19.72;73.54;100927.28;6112873;23;20096;-69
2023/07/08 00:05:18;;;;;;;6.80;6.20;;;;;;;19.31;73.32;100852.69;6117719;23;20653;-68
2023/07/08 00:07:48;;;;;;;6.50;6.00;;;;;;;19.58;72.83;100904.50;6114763;23;20025;-71
2023/07/08 00:10:24;;;;;;;6.30;5.80;;;;;;;19.46;71.16;100861.16;6116229;23;20096;-69
2023/07/08 00:12:54;;;;;;;6.40;5.97;;;;;;;19.23;70.94;100827.72;6087311;23;20021;-69
2023/07/08 00:15:22;;;;;;;6.43;6.03;;;;;;;18.95;70.31;100784.88;6068808;23;20097;-70
2023/07/08 00:17:49;;;;;;;6.30;5.90;;;;;;;18.53;70.73;100729.06;6115641;23;20018;-68
2023/07/08 00:20:34;;;;;;;6.40;6.00;;;;;;;19.53;70.94;100896.91;6088353;23;20026;-69
2023/07/08 00:23:01;;;;;;;6.60;6.10;;;;;;;19.49;72.68;100914.13;6117559;23;20859;-68
2023/07/08 00:25:29;;;;;;;6.40;5.97;;;;;;;19.47;72.91;100908.09;6089273;23;20026;-69
2023/07/08 00:27:55;;;;;;;7.13;5.95;;;;;;;19.42;73.72;100920.94;6104459;23;20475;-69
2023/07/08 00:30:30;;;;;;;6.45;6.05;;;;;;;19.00;73.70;100843.00;6082975;23;20026;-69
2023/07/08 00:32:58;;;;;;;6.50;6.00;;;;;;;19.08;73.63;100865.31;6115825;23;20589;-69
2023/07/08 00:35:32;;;;;;;6.25;5.85;;;;;;;19.43;72.78;100909.34;6118920;23;20120;-70
2023/07/08 00:38:02;;;;;;;6.50;6.10;;;;;;;18.92;71.62;100806.41;6114768;23;19998;-69
2023/07/08 00:40:31;;;;;;;6.72;6.22;;;;;;;19.20;71.78;100852.75;6116463;23;20017;-72
2023/07/08 00:43:00;;;;;;;5.90;5.60;;;;;;;19.16;71.65;100850.50;6115878;23;20696;-69
2023/07/08 00:45:37;;;;;;;8.30;6.28;;;;;;;19.49;71.31;100889.34;6087498;23;20366;-69
2023/07/08 00:48:24;;;;;;;6.40;5.90;;;;;;;19.47;70.26;100876.16;6092785;23;20029;-70
2023/07/08 00:50:51;;;;;;;6.00;5.68;;;;;;;18.96;71.06;100813.16;6118015;23;20507;-69
2023/07/08 00:53:29;;;;;;;6.35;5.95;;;;;;;19.06;72.55;100861.97;6115468;23;20030;-70
2023/07/08 00:56:00;;;;;;;6.25;5.88;;;;;;;19.25;71.84;100882.50;6113483;23;20048;-69
2023/07/08 00:58:34;;;;;;;6.47;5.97;;;;;;;19.01;71.52;100845.53;6086241;23;20033;-69
2023/07/08 01:01:04;;;;;;;7.03;6.40;;;;;;;19.08;71.40;100864.47;6088068;23;20066;-68
2023/07/08 01:03:35;;;;;;;7.88;7.28;;;;;;;19.16;71.07;100871.78;6112947;23;20866;-69
2023/07/08 01:06:04;;;;;;;6.50;5.55;;;;;;;19.06;71.10;100863.75;6113202;23;20022;-70
2023/07/08 01:08:32;;;;;;;6.53;6.03;;;;;;;19.01;71.51;100869.47;6081863;23;20033;-69
2023/07/08 01:11:02;;;;;;;6.43;5.93;;;;;;;18.93;71.87;100867.47;6116321;23;20034;-70
2023/07/08 01:13:40;;;;;;;6.35;5.95;;;;;;;18.90;72.60;100880.16;6079821;23;20093;-69
2023/07/08 01:16:07;;;;;;;7.25;6.28;;;;;;;18.98;73.20;100906.13;6112497;23;20021;-69
2023/07/08 01:18:35;;;;;;;6.53;6.13;;;;;;;18.50;73.76;100839.16;6088761;23;20028;-70
2023/07/08 01:21:27;;;;;;;6.25;5.85;;;;;;;18.86;73.66;100902.66;6115618;23;20082;-70
2023/07/08 01:23:53;;;;;;;6.30;5.90;;;;;;;18.86;73.81;100923.94;6086954;23;20309;-70
2023/07/08 01:26:24;;;;;;;7.10;6.40;;;;;;;18.85;73.99;100920.44;6091354;23;20025;-69
2023/07/08 01:28:53;;;;;;;6.30;5.90;;;;;;;18.87;74.38;100923.81;6120334;23;20033;-69
2023/07/08 01:31:22;;;;;;;6.32;5.88;;;;;;;18.90;74.59;100920.94;6114878;23;20041;-69
2023/07/08 01:33:50;;;;;;;6.68;6.18;;;;;;;18.95;74.67;100931.16;6081212;23;20097;-70
2023/07/08 01:36:17;;;;;;;6.60;6.10;;;;;;;18.80;75.01;100885.41;6112879;23;20104;-69
2023/07/08 01:38:44;;;;;;;6.47;6.07;;;;;;;18.99;74.82;100913.97;6116634;23;20610;-68
2023/07/08 01:41:14;;;;;;;6.88;6.38;;;;;;;19.00;74.53;100899.69;6116226;23;20072;-68
2023/07/08 01:43:40;;;;;;;6.65;6.25;;;;;;;18.96;74.14;100884.97;6116036;23;20304;-69
2023/07/08 01:46:15;;;;;;;6.60;6.18;;;;;;;19.02;73.89;100880.94;6087098;23;20073;-68
2023/07/08 01:48:48;;;;;;;6.70;6.28;;;;;;;18.78;75.71;100889.97;6117302;23;20176;-69
2023/07/08 01:51:14;;;;;;;6.70;6.15;;;;;;;18.61;78.10;100882.59;6082008;23;20500;-70
2023/07/08 01:53:52;;;;;;;12.90;12.20;;;;;;;18.87;79.64;100942.44;6078584;23;20283;-66
2023/07/08 01:56:22;;;;;;;6.50;6.00;;;;;;;18.96;81.16;100953.28;6087573;23;20087;-68
2023/07/08 01:58:49;;;;;;;6.13;5.80;;;;;;;18.47;81.26;100875.75;6114084;23;20035;-68
2023/07/08 02:01:15;;;;;;;7.07;6.25;;;;;;;18.87;82.91;100949.59;6117218;23;20799;-69
2023/07/08 02:03:42;;;;;;;6.60;6.15;;;;;;;18.84;82.85;100940.06;6119066;23;20033;-69
2023/07/08 02:06:19;;;;;;;6.35;5.88;;;;;;;18.77;81.98;100917.56;6121964;23;20110;-69
2023/07/08 02:08:59;;;;;;;6.30;5.90;;;;;;;18.79;80.93;100898.81;6107729;23;20085;-69
2023/07/08 02:11:26;;;;;;;6.68;6.18;;;;;;;18.79;80.91;100905.00;6111974;23;20033;-69
2023/07/08 02:13:53;;;;;;;6.32;5.80;;;;;;;18.79;81.41;100906.81;6119899;23;20453;-70
2023/07/08 02:16:20;;;;;;;6.75;6.18;;;;;;;18.71;81.22;100888.81;6115158;23;20024;-69
2023/07/08 02:18:46;;;;;;;6.40;6.00;;;;;;;18.56;81.22;100852.88;6111731;23;21614;-69
2023/07/08 02:21:13;;;;;;;6.80;6.35;;;;;;;18.54;81.81;100860.97;6118905;23;20096;-71
2023/07/08 02:23:39;;;;;;;6.38;5.95;;;;;;;18.58;81.15;100849.13;6083467;23;20097;-69
2023/07/08 02:26:06;;;;;;;7.00;6.40;;;;;;;18.79;82.78;100909.47;6113515;23;20661;-68
2023/07/08 02:28:32;;;;;;;6.45;6.05;;;;;;;18.69;82.63;100906.72;6112885;23;20021;-68
2023/07/08 02:31:08;;;;;;;6.30;5.90;;;;;;;18.64;82.87;100904.47;6091920;23;20092;-70
2023/07/08 02:33:35;;;;;;;6.72;6.15;;;;;;;18.60;81.94;100903.03;6084391;23;20510;-68
2023/07/08 02:36:02;;;;;;;6.25;5.85;;;;;;;18.23;82.30;100836.13;6117972;23;20022;-69
2023/07/08 02:38:28;;;;;;;6.88;6.30;;;;;;;18.59;82.52;100887.19;6096259;23;20024;-69
2023/07/08 02:40:55;;;;;;;6.60;6.00;;;;;;;18.59;81.56;100885.38;6113625;23;20022;-69
2023/07/08 02:43:22;;;;;;;6.72;6.10;;;;;;;18.20;81.46;100812.44;6119202;23;20021;-69
2023/07/08 02:45:52;;;;;;;7.25;6.75;;;;;;;18.15;81.52;100804.88;6115444;23;22224;-69
2023/07/08 02:48:19;;;;;;;7.13;6.35;;;;;;;18.58;82.29;100894.31;6114218;23;20025;-68
2023/07/08 02:50:46;;;;;;;7.10;6.60;;;;;;;18.59;82.92;100908.47;6114521;23;20087;-69
2023/07/08 02:53:12;;;;;;;6.90;6.25;;;;;;;18.57;84.33;100916.56;6098362;23;20335;-68
2023/07/08 02:55:42;;;;;;;6.85;6.38;;;;;;;18.59;83.97;100921.75;6112528;23;20029;-70
2023/07/08 02:58:09;;;;;;;6.20;5.72;;;;;;;18.59;83.46;100917.28;6110152;23;20721;-70
2023/07/08 03:00:37;;;;;;;6.70;6.10;;;;;;;18.43;84.24;100896.44;6088342;23;20038;-68
2023/07/08 03:03:04;;;;;;;6.78;6.28;;;;;;;18.48;85.38;100925.28;6110971;23;20120;-68
2023/07/08 03:05:31;;;;;;;7.15;6.45;;;;;;;18.48;85.14;100943.88;6066054;23;20014;-69
2023/07/08 03:07:58;;;;;;;6.88;6.20;;;;;;;18.33;85.68;100927.38;6115625;23;20104;-70
2023/07/08 03:10:25;;;;;;;6.78;6.35;;;;;;;18.30;86.59;100952.41;6085316;23;20097;-70
2023/07/08 03:12:51;;;;;;;6.93;6.30;;;;;;;18.19;86.38;100930.31;6111148;23;20010;-69
2023/07/08 03:15:19;;;;;;;7.10;6.50;;;;;;;18.26;86.70;100956.28;6115400;23;20047;-70
2023/07/08 03:17:45;;;;;;;7.10;6.60;;;;;;;17.91;86.71;100898.00;6112064;23;20580;-69
2023/07/08 03:20:12;;;;;;;10.77;6.25;;;;;;;18.02;86.46;100913.94;6109145;23;20202;-68
2023/07/08 03:22:38;;;;;;;6.78;6.28;;;;;;;18.33;87.21;100960.09;6109739;23;20020;-69
2023/07/08 03:25:05;;;;;;;6.45;6.05;;;;;;;18.34;86.56;100947.66;6118561;23;20036;-69
2023/07/08 03:27:32;;;;;;;6.13;5.72;;;;;;;18.38;86.23;100959.75;6116307;23;20025;-69
2023/07/08 03:29:58;;;;;;;6.25;5.85;;;;;;;18.32;85.96;100944.28;6091268;23;20090;-70
2023/07/08 03:32:25;;;;;;;6.53;5.93;;;;;;;18.30;85.47;100931.13;6116557;23;20017;-71
2023/07/08 03:34:52;;;;;;;6.60;6.13;;;;;;;18.43;85.01;100944.25;6113222;23;20017;-68
2023/07/08 03:37:19;;;;;;;6.63;6.07;;;;;;;18.46;84.32;100940.50;6109471;23;20057;-68
2023/07/08 03:39:45;;;;;;;6.78;6.28;;;;;;;18.55;83.60;100953.06;6091360;23;20048;-68
2023/07/08 03:42:11;;;;;;;6.35;5.85;;;;;;;18.56;84.10;100954.72;6111164;23;20684;-68
2023/07/08 03:44:38;;;;;;;6.72;6.13;;;;;;;18.59;83.88;100965.13;6116775;23;20904;-68
2023/07/08 03:47:04;;;;;;;6.30;5.90;;;;;;;18.61;83.39;100949.06;6095511;23;20045;-68
2023/07/08 03:49:31;;;;;;;6.80;6.30;;;;;;;18.71;84.62;100985.38;6114085;23;20028;-68
2023/07/08 03:51:57;;;;;;;6.80;6.20;;;;;;;18.77;86.57;101002.66;6116039;23;20022;-68
2023/07/08 03:54:25;;;;;;;6.78;6.28;;;;;;;18.81;85.98;100997.97;6091042;23;20057;-68
2023/07/08 03:56:52;;;;;;;6.80;6.20;;;;;;;18.83;85.71;101002.16;6086911;23;20019;-68
2023/07/08 03:59:18;;;;;;;7.43;6.80;;;;;;;18.84;86.27;101021.63;6084871;23;20025;-68
2023/07/08 04:01:45;;;;;;;7.25;6.55;;;;;;;18.89;85.80;101014.13;6114176;23;20033;-68
2023/07/08 04:04:15;;;;;;;5.93;5.57;;;;;;;18.89;84.95;101003.50;6110488;23;20076;-68
2023/07/08 04:06:43;;;;;;;6.78;6.32;;;;;;;18.77;83.88;100977.88;6091887;23;20930;-68
2023/07/08 04:09:09;;;;;;;7.75;6.45;;;;;;;19.00;83.58;100999.94;6111841;23;20024;-69
2023/07/08 04:11:36;;;;;;;6.82;6.22;;;;;;;18.93;84.06;100991.63;6115403;23;20025;-68
2023/07/08 04:14:02;;;;;;;10.60;6.28;;;;;;;19.02;83.09;100993.50;6114545;23;20068;-68
2023/07/08 04:16:45;;;;;;;6.95;6.35;;;;;;;19.21;80.69;100981.34;6111787;23;20030;-68
2023/07/08 04:19:15;;;;;;;;;;;;;;;19.56;77.97;100951.69;6088280;23;20017;-68
2023/07/08 04:21:44;;;;;;;7.35;6.65;;;;;;;19.74;75.28;100920.00;6114623;23;19961;-68
2023/07/08 04:24:13;;;;;;;6.90;6.40;;;;;;;19.88;72.81;100876.19;6114139;23;20364;-68
2023/07/08 04:26:39;;;;;;;7.13;6.53;;;;;;;19.14;70.83;100709.63;6113794;23;20037;-68
2023/07/08 04:29:17;;;;;;;7.15;6.55;;;;;;;19.88;68.97;100782.97;6108581;23;20028;-68
2023/07/08 04:31:44;;;;;;;7.50;6.85;;;;;;;20.36;69.52;100845.25;6115495;23;20022;-69
2023/07/08 04:34:11;;;;;;;8.70;6.43;;;;;;;20.49;69.85;100845.84;6082770;23;20045;-68
2023/07/08 04:36:38;;;;;;;6.93;6.38;;;;;;;20.61;69.64;100868.72;6092709;23;20357;-68
2023/07/08 04:39:06;;;;;;;9.60;6.88;;;;;;;20.35;70.94;100868.41;6111480;23;20099;-68
2023/07/08 04:41:33;;;;;;;6.80;6.30;;;;;;;20.01;71.92;100859.97;6090677;23;20179;-68
2023/07/08 04:44:02;;;;;;;7.00;6.40;;;;;;;19.62;72.16;100828.69;6112012;23;20017;-69
2023/07/08 04:46:56;;;;;;;7.07;6.47;;;;;;;19.83;72.15;100870.44;6113898;23;20085;-68
2023/07/08 04:49:31;;;;;;;9.60;6.93;;;;;;;19.75;69.79;100815.19;6107138;23;20026;-68
2023/07/08 04:51:59;;;;;;;7.50;6.88;;;;;;;19.38;69.99;100770.50;6110997;23;20017;-69
2023/07/08 04:54:25;;;;;;;7.28;6.65;;;;;;;19.73;71.99;100863.25;6109788;23;20730;-68
2023/07/08 04:56:52;;;;;;;7.38;6.82;;;;;;;19.28;73.87;100838.81;6089922;23;20029;-68
2023/07/08 04:59:23;;;;;;;6.65;6.22;;;;;;;19.73;74.75;100913.84;6109538;23;20479;-69
2023/07/08 05:01:53;;;;;;;7.05;6.55;;;;;;;19.98;74.72;100911.69;6115895;23;20033;-69
2023/07/08 05:04:21;;;;;;;6.90;6.30;;;;;;;21.47;72.60;100970.19;6111760;23;20029;-68
2023/07/08 05:06:49;;;;;;;8.15;7.22;;;;;;;22.45;67.01;100884.16;6109926;23;20701;-68
2023/07/08 05:09:15;;;;;;;7.28;6.72;;;;;;;23.06;60.14;100724.59;6112838;23;20026;-69
2023/07/08 05:11:43;;;;;;;7.38;6.78;;;;;;;23.97;58.43;100737.22;6114857;23;20010;-68
2023/07/08 05:14:12;;;;;;;7.75;7.15;;;;;;;24.63;54.73;100659.38;6112070;23;20029;-68
2023/07/08 05:16:40;;;;;;;7.72;7.13;;;;;;;24.58;51.36;100492.72;6115433;23;20086;-68
2023/07/08 05:19:07;;;;;;;7.63;7.03;;;;;;;24.64;51.71;100546.53;6114360;23;20041;-67
2023/07/08 05:21:34;;;;;;;8.30;7.60;;;;;;;24.05;50.69;100439.63;6115821;23;20039;-67
2023/07/08 05:24:02;;;;;;;7.15;6.65;;;;;;;24.50;51.18;100549.94;6080699;23;20675;-68
2023/07/08 05:26:29;;;;;;;7.95;7.25;;;;;;;24.23;51.53;100482.28;6089260;23;20085;-68
2023/07/08 05:28:56;;;;;;;7.47;6.85;;;;;;;23.99;50.01;100393.94;6112406;23;20025;-68
2023/07/08 05:31:22;;;;;;;7.15;6.60;;;;;;;25.45;48.77;100512.06;6090460;23;20026;-68
2023/07/08 05:34:07;;;;;;;7.40;6.90;;;;;;;24.99;47.50;100388.56;6112485;23;20029;-67
2023/07/08 05:36:34;;;;;;;7.15;6.55;;;;;;;25.65;46.78;100473.91;6114549;23;20037;-69
2023/07/08 05:39:00;;;;;;;7.30;6.82;;;;;;;25.74;46.07;100412.81;6110025;23;20387;-68
2023/07/08 05:41:27;;;;;;;7.90;7.20;;;;;;;25.45;45.30;100340.09;6088811;23;20614;-67
2023/07/08 05:43:53;;;;;;;7.80;7.10;;;;;;;26.61;44.91;100468.56;6097857;23;20044;-67
2023/07/08 05:46:20;;;;;;;8.15;7.40;;;;;;;26.47;43.49;100349.16;6113208;23;20084;-70
2023/07/08 05:48:46;;;;;;;7.53;6.82;;;;;;;26.45;43.79;100405.84;6108861;23;20017;-67
2023/07/08 05:51:12;;;;;;;7.80;7.20;;;;;;;26.13;43.50;100409.84;6069032;23;20025;-68
2023/07/08 05:53:39;;;;;;;7.80;7.10;;;;;;;26.32;44.01;100464.91;6112110;23;20690;-68
2023/07/08 05:56:05;;;;;;;7.70;7.03;;;;;;;27.21;43.03;100531.94;6085262;23;20011;-68
2023/07/08 05:58:32;;;;;;;7.57;6.97;;;;;;;26.77;42.16;100406.41;6109823;23;20092;-67
2023/07/08 06:01:01;;;;;;;7.30;6.80;;;;;;;26.80;42.01;100478.72;6077807;23;20048;-69
2023/07/08 06:03:28;;;;;;;6.97;6.47;;;;;;;26.89;41.73;100476.72;6114420;23;20030;-69
2023/07/08 06:05:54;;;;;;;8.13;7.32;;;;;;;26.81;40.70;100383.44;6112648;23;20079;-67
2023/07/08 06:08:21;;;;;;;7.18;6.60;;;;;;;27.59;39.82;100456.16;6106848;23;20034;-67
2023/07/08 06:10:49;;;;;;;7.85;7.25;;;;;;;27.52;39.67;100481.41;6111851;23;20701;-67
2023/07/08 06:13:15;;;;;;;7.70;7.07;;;;;;;27.35;38.78;100435.91;6110773;23;20036;-67
2023/07/08 06:15:42;;;;;;;7.50;7.00;;;;;;;26.31;40.97;100481.25;6112167;23;20095;-70
2023/07/08 06:18:09;;;;;;;7.28;6.78;;;;;;;26.46;40.16;100453.28;6110865;23;20104;-68
2023/07/08 06:20:35;;;;;;;7.93;7.22;;;;;;;26.58;40.56;100523.63;6087861;23;20031;-68
2023/07/08 06:23:01;;;;;;;7.30;6.78;;;;;;;26.77;40.19;100549.09;6112869;23;20120;-68
2023/07/08 06:25:28;;;;;;;7.45;6.85;;;;;;;27.21;39.63;100561.56;6112782;23;20033;-68
2023/07/08 06:27:54;;;;;;;7.55;7.03;;;;;;;27.35;39.63;100600.28;6114924;23;20536;-68
2023/07/08 06:30:21;;;;;;;7.40;6.80;;;;;;;27.75;37.91;100518.91;6111944;23;20029;-67
2023/07/08 06:32:47;;;;;;;7.28;6.68;;;;;;;26.61;39.32;100496.31;6111512;23;20032;-68
2023/07/08 06:35:14;;;;;;;6.80;6.30;;;;;;;26.26;40.27;100514.94;6110901;23;20076;-69
2023/07/08 06:37:40;;;;;;;7.07;6.57;;;;;;;26.31;39.97;100508.16;6096356;23;20029;-68
2023/07/08 06:40:08;;;;;;;7.43;6.82;;;;;;;26.25;40.51;100552.78;6112356;23;20510;-67
2023/07/08 06:42:34;;;;;;;7.68;7.07;;;;;;;26.69;40.11;100584.22;6081960;23;20021;-68
2023/07/08 06:45:02;;;;;;;6.90;6.40;;;;;;;26.66;40.77;100619.56;6110966;23;20420;-69
2023/07/08 06:47:29;;;;;;;7.22;6.72;;;;;;;26.42;40.42;100583.84;6089023;23;20041;-67
2023/07/08 06:49:55;;;;;;;7.57;7.07;;;;;;;26.38;39.65;100536.81;6108633;23;20029;-68
2023/07/08 06:52:25;;;;;;;7.20;6.63;;;;;;;26.01;39.59;100525.13;6108835;23;20016;-66
2023/07/08 06:54:51;;;;;;;7.70;7.10;;;;;;;26.28;39.79;100576.63;6113077;23;20534;-66
2023/07/08 06:57:18;;;;;;;7.25;6.70;;;;;;;26.40;38.58;100504.31;6112645;23;20016;-67
2023/07/08 06:59:44;;;;;;;7.30;6.80;;;;;;;26.11;38.77;100500.66;6111855;23;20633;-67
2023/07/08 07:02:10;;;;;;;6.80;6.40;;;;;;;26.38;38.21;100495.59;6119859;23;20398;-67
2023/07/08 07:04:37;;;;;;;7.35;6.85;;;;;;;26.24;37.52;100476.63;6097798;23;20054;-66
2023/07/08 07:07:03;;;;;;;7.60;7.00;;;;;;;26.11;36.97;100441.47;6123938;23;20100;-68
2023/07/08 07:09:31;;;;;;;7.25;6.63;;;;;;;26.12;36.87;100445.00;6114044;23;20037;-69
2023/07/08 07:11:58;;;;;;;7.72;7.13;;;;;;;25.92;38.12;100485.94;6117058;23;20083;-67
2023/07/08 07:14:24;;;;;;;6.95;6.50;;;;;;;26.46;38.01;100566.31;6120779;23;20360;-67
2023/07/08 07:16:53;;;;;;;7.68;6.90;;;;;;;26.53;38.03;100554.78;6120690;23;20023;-66
2023/07/08 07:19:36;;;;;;;7.10;6.60;;;;;;;26.40;36.83;100474.72;6116572;23;20033;-67
2023/07/08 07:22:03;;;;;;;7.20;6.70;;;;;;;26.40;37.01;100507.00;6118408;23;20226;-68
2023/07/08 07:24:29;;;;;;;7.45;6.88;;;;;;;26.42;37.90;100559.63;6122632;23;20021;-68
2023/07/08 07:26:56;;;;;;;7.20;6.70;;;;;;;26.53;37.52;100576.31;6121348;23;20164;-68
2023/07/08 07:29:23;;;;;;;8.43;7.28;;;;;;;26.46;37.45;100541.22;6118500;23;20021;-68
2023/07/08 07:31:51;;;;;;;7.47;6.88;;;;;;;26.49;39.08;100636.91;6126101;23;20048;-69
2023/07/08 07:34:18;;;;;;;7.10;6.60;;;;;;;26.98;37.98;100618.31;6119113;23;20025;-68
2023/07/08 07:36:44;;;;;;;8.30;7.30;;;;;;;27.25;37.00;100614.06;6123347;23;20029;-68
2023/07/08 07:39:11;;;;;;;8.55;7.18;;;;;;;27.08;36.03;100498.63;6119769;23;20045;-67
2023/07/08 07:41:37;;;;;;;7.38;6.78;;;;;;;27.38;35.77;100526.28;6121207;23;20051;-69
2023/07/08 07:44:06;;;;;;;7.35;6.75;;;;;;;27.74;36.46;100608.91;6087863;23;20713;-69
2023/07/08 07:46:33;;;;;;;7.40;6.80;;;;;;;27.76;35.33;100561.84;6122373;23;20021;-67
2023/07/08 07:49:00;;;;;;;7.38;6.88;;;;;;;27.85;34.97;100552.56;6090142;23;20432;-67
2023/07/08 07:51:26;;;;;;;7.75;7.10;;;;;;;27.86;35.73;100601.94;6120379;23;20017;-68
2023/07/08 07:53:52;;;;;;;7.82;7.13;;;;;;;27.79;36.10;100606.47;6121488;23;20025;-68
2023/07/08 07:56:19;;;;;;;7.13;6.57;;;;;;;28.06;35.59;100612.91;6095223;23;20013;-68
2023/07/08 07:58:45;;;;;;;8.30;7.70;;;;;;;28.41;35.13;100634.53;6113216;23;20304;-68
2023/07/08 08:01:13;;;;;;;8.00;7.18;;;;;;;28.51;34.79;100628.81;6117362;23;20022;-68
2023/07/08 08:03:39;;;;;;;7.15;6.57;;;;;;;28.54;35.19;100650.00;6117452;23;20029;-68
2023/07/08 08:06:06;;;;;;;6.82;6.40;;;;;;;28.13;35.32;100581.44;6096267;23;20028;-68
2023/07/08 08:08:32;;;;;;;7.55;6.97;;;;;;;28.44;34.91;100610.66;6116336;23;20043;-67
2023/07/08 08:11:02;;;;;;;6.97;6.47;;;;;;;28.51;34.87;100631.50;6116557;23;20102;-67
2023/07/08 08:13:28;;;;;;;7.40;6.80;;;;;;;28.13;35.06;100594.91;6112401;23;20029;-67
2023/07/08 08:15:57;;;;;;;8.05;7.05;;;;;;;27.64;35.47;100563.41;6113633;23;20044;-67
2023/07/08 08:18:27;;;;;;;7.50;6.82;;;;;;;27.28;36.21;100579.69;6106684;23;20105;-67
2023/07/08 08:20:54;;;;;;;8.15;7.45;;;;;;;26.87;36.16;100543.41;6088015;23;20531;-67
2023/07/08 08:23:20;;;;;;;7.47;6.88;;;;;;;26.88;36.83;100601.59;6115035;23;20077;-67
2023/07/08 08:25:46;;;;;;;7.97;7.25;;;;;;;26.92;36.97;100629.84;6114847;23;20067;-67
2023/07/08 08:28:13;;;;;;;7.25;6.70;;;;;;;26.18;37.79;100547.31;6111736;23;20017;-67
2023/07/08 08:30:40;;;;;;;7.63;6.72;;;;;;;26.96;36.98;100633.84;6083073;23;20049;-70
2023/07/08 08:33:06;;;;;;;8.13;7.43;;;;;;;27.02;37.64;100651.94;6118721;23;20054;-69
2023/07/08 08:35:33;;;;;;;7.25;6.72;;;;;;;25.92;37.04;100425.91;6085034;23;20042;-68
2023/07/08 08:37:59;;;;;;;8.57;7.25;;;;;;;28.12;35.61;100666.09;6110830;23;20056;-67
2023/07/08 08:40:26;;;;;;;7.25;6.68;;;;;;;28.53;35.26;100673.47;6115733;23;20017;-67
2023/07/08 08:43:02;;;;;;;7.55;6.95;;;;;;;28.88;35.08;100724.75;6111696;23;20051;-67
2023/07/08 08:45:35;;;;;;;7.60;7.00;;;;;;;28.74;33.93;100607.69;6107551;23;20070;-69
2023/07/08 08:48:09;;;;;;;8.35;7.63;;;;;;;29.40;34.43;100690.06;6113711;23;20021;-70
2023/07/08 08:50:50;;;;;;;8.00;7.30;;;;;;;29.13;33.88;100598.09;6113434;23;20432;-69
2023/07/08 08:53:19;;;;;;;9.18;7.68;;;;;;;29.40;34.51;100717.91;6112226;23;20036;-69
2023/07/08 08:56:31;;;;;;;7.68;6.97;;;;;;;29.31;33.93;100629.94;6112832;23;20037;-69
2023/07/08 08:59:12;;;;;;;8.13;7.53;;;;;;;29.46;33.30;100655.97;6096835;23;20060;-69
2023/07/08 09:01:39;;;;;;;7.47;6.80;;;;;;;29.68;33.65;100697.19;6103004;23;20033;-69
2023/07/08 09:04:12;;;;;;;7.35;6.85;;;;;;;29.90;32.96;100657.28;6106331;23;20035;-68
2023/07/08 09:06:40;;;;;;;7.25;6.75;;;;;;;29.52;33.08;100576.72;6079837;23;20030;-69
2023/07/08 09:09:22;;;;;;;7.78;7.18;;;;;;;29.82;32.65;100651.00;6111863;23;20045;-69
2023/07/08 09:12:03;;;;;;;8.57;6.85;;;;;;;28.99;33.06;100545.88;6082825;23;20087;-68
2023/07/08 09:14:32;;;;;;;7.05;6.55;;;;;;;30.06;33.12;100732.63;6107242;23;20026;-68
2023/07/08 09:17:22;;;;;;;7.30;6.70;;;;;;;30.03;33.40;100679.75;6111917;23;20037;-68
2023/07/08 09:20:25;;;;;;;7.10;6.50;;;;;;;30.34;32.29;100689.13;6111004;23;20029;-68
2023/07/08 09:23:09;;;;;;;7.45;6.85;;;;;;;30.50;32.62;100709.50;6109906;23;20042;-67
2023/07/08 09:25:46;;;;;;;7.47;6.97;;;;;;;30.64;32.23;100694.06;6110833;23;20030;-67
2023/07/08 09:28:14;;;;;;;7.63;6.97;;;;;;;30.66;32.35;100673.00;6109387;23;20482;-68
2023/07/08 09:30:47;;;;;;;7.05;6.55;;;;;;;30.62;32.37;100679.88;6113010;23;20507;-68
2023/07/08 09:33:14;;;;;;;6.80;6.30;;;;;;;30.60;31.19;100646.78;6109613;23;20068;-69
2023/07/08 09:35:46;;;;;;;7.55;6.78;;;;;;;30.59;32.32;100640.53;6108523;23;20034;-69
2023/07/08 09:38:16;;;;;;;7.40;6.80;;;;;;;30.72;32.43;100695.69;6076141;23;20024;-69
2023/07/08 09:40:53;;;;;;;8.50;6.80;;;;;;;30.98;31.43;100641.41;6110968;23;20013;-69
2023/07/08 09:43:27;;;;;;;7.57;6.97;;;;;;;31.12;31.31;100627.81;6109178;23;20027;-70
2023/07/08 09:45:59;;;;;;;7.25;6.70;;;;;;;30.88;32.01;100619.38;6087099;23;20453;-69
2023/07/08 09:48:28;;;;;;;7.50;6.67;;;;;;;30.80;31.23;100609.59;6093848;23;20036;-70
2023/07/08 09:50:57;;;;;;;7.45;6.55;;;;;;;30.91;30.72;100600.00;6086487;23;20040;-69
2023/07/08 09:53:26;;;;;;;7.57;6.95;;;;;;;30.93;31.11;100630.41;6089789;23;20026;-69
2023/07/08 09:55:56;;;;;;;9.32;6.55;;;;;;;30.99;31.20;100605.16;6103743;23;20023;-69
2023/07/08 09:58:37;;;;;;;7.43;6.72;;;;;;;31.28;32.58;100713.22;6101473;23;20032;-69
2023/07/08 10:01:25;;;;;;;7.03;6.63;;;;;;;31.45;31.44;100673.72;6058425;23;20034;-69
2023/07/08 10:03:57;;;;;;;7.40;6.80;;;;;;;31.38;31.33;100676.44;6097287;23;20636;-69
2023/07/08 10:06:30;;;;;;;6.90;6.30;;;;;;;31.67;31.74;100719.47;6071195;23;20050;-69
2023/07/08 10:09:02;;;;;;;7.10;6.60;;;;;;;31.96;30.85;100688.16;6097834;23;20110;-70
2023/07/08 10:11:33;;;;;;;8.02;7.30;;;;;;;31.93;30.34;100656.03;6108199;23;20032;-69
2023/07/08 10:14:05;;;;;;;7.28;6.68;;;;;;;32.14;30.33;100663.81;6082904;23;20037;-69
2023/07/08 10:16:40;;;;;;;6.60;6.20;;;;;;;32.02;30.60;100657.44;6104641;23;20056;-69
2023/07/08 10:19:17;;;;;;;7.13;6.63;;;;;;;32.23;30.11;100656.19;6090134;23;20089;-68
2023/07/08 10:21:55;;;;;;;8.15;6.80;;;;;;;32.27;29.78;100648.44;6089580;23;20078;-68
2023/07/08 10:24:51;;;;;;;7.60;6.65;;;;;;;32.36;29.77;100656.06;6108893;23;20009;-68
2023/07/08 10:27:40;;;;;;;6.88;6.32;;;;;;;32.42;30.03;100681.50;6110119;23;20021;-68
2023/07/08 10:30:21;;;;;;;9.73;6.43;;;;;;;32.62;29.89;100681.31;6109500;23;20037;-68
2023/07/08 10:33:26;;;;;;;7.88;7.18;;;;;;;32.82;29.51;100653.91;6106793;23;20022;-68
2023/07/08 10:36:09;;;;;;;7.32;6.72;;;;;;;32.57;29.58;100643.94;6022333;23;20410;-67
2023/07/08 10:39:17;;;;;;;7.30;6.70;;;;;;;32.88;29.82;100663.03;6075842;23;20683;-68
2023/07/08 10:41:58;;;;;;;8.40;6.70;;;;;;;32.97;29.94;100678.78;6049950;23;20769;-68
2023/07/08 10:44:52;;;;;;;7.43;6.70;;;;;;;33.11;29.64;100663.16;6104112;23;20029;-68
2023/07/08 10:47:50;;;;;;;6.82;6.32;;;;;;;32.84;29.39;100608.28;6106058;23;20020;-68
2023/07/08 10:50:29;;;;;;;7.30;6.68;;;;;;;32.80;28.75;100590.78;6112427;23;20116;-68
2023/07/08 10:53:28;;;;;;;7.07;6.57;;;;;;;33.03;29.82;100659.91;6111873;23;20029;-68
2023/07/08 10:56:16;;;;;;;7.22;6.72;;;;;;;33.12;29.46;100648.50;6112988;23;20033;-68
2023/07/08 10:59:13;;;;;;;6.55;6.13;;;;;;;33.09;28.97;100608.16;6090587;23;20217;-68
2023/07/08 11:02:13;;;;;;;7.85;7.10;;;;;;;32.31;28.63;100522.00;6107112;23;20034;-68
2023/07/08 11:04:42;;;;;;;7.13;6.63;;;;;;;33.30;28.98;100639.47;6110132;23;20021;-68
2023/07/08 11:07:11;;;;;;;7.13;6.63;;;;;;;33.38;29.02;100633.69;6109158;23;20627;-68
2023/07/08 11:09:51;;;;;;;7.07;6.43;;;;;;;33.21;28.45;100585.63;6111038;23;20086;-68
2023/07/08 11:12:28;;;;;;;7.40;6.70;;;;;;;33.07;29.17;100623.03;6110599;23;20009;-68
2023/07/08 11:15:22;;;;;;;7.55;6.95;;;;;;;33.50;28.69;100666.38;6109100;23;20054;-69
2023/07/08 11:18:21;;;;;;;7.45;6.80;;;;;;;33.57;29.59;100694.28;6110869;23;20017;-69
2023/07/08 11:20:58;;;;;;;7.43;6.53;;;;;;;33.49;27.52;100544.97;6106474;23;20021;-68
2023/07/08 11:23:57;;;;;;;6.88;6.38;;;;;;;33.66;28.10;100659.44;6082597;23;20029;-68
2023/07/08 11:26:33;;;;;;;6.80;6.20;;;;;;;33.89;28.38;100669.53;6111350;23;20025;-68
2023/07/08 11:29:01;;;;;;;7.20;6.65;;;;;;;33.88;28.22;100626.19;6109202;23;20029;-68
2023/07/08 11:31:32;;;;;;;7.30;6.63;;;;;;;33.77;27.96;100616.97;6110175;23;20018;-68
2023/07/08 11:34:01;;;;;;;6.85;6.28;;;;;;;33.61;28.18;100574.09;6081371;23;20020;-68
2023/07/08 11:36:30;;;;;;;7.25;6.70;;;;;;;33.60;27.93;100556.94;6112371;23;20016;-68
2023/07/08 11:38:57;;;;;;;7.22;6.63;;;;;;;33.96;28.62;100661.25;6108350;23;20002;-68
2023/07/08 11:41:28;;;;;;;6.82;6.38;;;;;;;34.13;28.01;100654.03;6107681;23;20050;-68